Aeroporto :
LOGIN :

Iscrizione | Disclaimer

   EN    FR    IT 

 










Sommario :    VFR   VFR Marginale   IFR   IFR Intensivo   IFR Molto Intensivo
Visibilità : 
Base nubi : 
>= 8 km
>= 3000ft
5 / 8 km
1000 / 3000 ft
1500m / 5 km
500 / 1000 ft
800 / 1500m
200 / 500 ft
< 800m
< 200 ft
Simboli :   Temporali  Nebbia  Neve Forte  Precipitazioni Forti  Vento > 20 kt
SIGMETs :   Varie  Temporali  Ghiacco  Turbolenza  Onda orograficha  Ceneri Vulcaniche






- Altitudine del aeroporto : 56 ft
- Codice IATA : ILY


EGPI - Islay

ULTIMO METAR :
  • 131720Z AUTO 08009KT 050V120 9999 NCD 23/17 Q1016

METARs OBSOLETI :
  • 131650Z 07009KT 040V100 CAVOK 23/17 Q1016
  • 131620Z AUTO 08010KT 050V120 9999 NCD 24/17 Q1016
  • 131550Z 07009KT 010V110 CAVOK 24/17 Q1016
  • 131520Z 24005KT 200V270 CAVOK 23/17 Q1017
  • 131450Z 25007KT CAVOK 23/17 Q1016

TAF TAF EGPI
Valido dal 13 a 18 ore il 14 a 03 ore UTC


131700Z 1318/1403 05006KT 9999 FEW030



MetMap, La meteo Aeronautica in un colpo d'occhio ! - Copyright ORBIFLY Dicembre 2007 - Disclaimer

ORBIFLY MET'MAP TEAM :

Programmazione e sviluppo : Alexandra Zaïnal
Concezione : Baudouin d'Aumeries
Aiuto per la programmazione : Marc-Olivier Méhu
Supporto tecnico e logistico : Manuel Goepfert
Aiuto per la traduzione : Arnaldo La Scala

Contatto : metmap@orbifly.com




FONTI E CREDITI :

   NOAA